Time;durP1;ratioP1;P1;durP2;ratioP2;P2;SDS_P1;SDS_P2;PMS_P1;PMS_P2;Temp;Humidity;BMP_temperature;BMP_pressure;BME280_temperature;BME280_humidity;BME280_pressure;Samples;Min_cycle;Max_cycle;Signal;HPM_P1;HPM_P2
2022/02/07 00:01:58;;;;;;;12.73;2.08;;;6.70;73.90;;;;;;4991849;28;20050;-87
2022/02/07 00:04:30;;;;;;;12.43;1.98;;;6.70;73.90;;;;;;4994967;28;20053;-87
2022/02/07 00:06:57;;;;;;;11.65;1.88;;;6.60;73.90;;;;;;4995028;28;20499;-86
2022/02/07 00:09:24;;;;;;;11.57;2.28;;;6.60;73.90;;;;;;4994626;28;20502;-86
2022/02/07 00:11:51;;;;;;;10.98;2.28;;;6.60;73.90;;;;;;4993380;28;20057;-86
2022/02/07 00:14:18;;;;;;;8.68;2.15;;;6.60;74.00;;;;;;4994788;28;20058;-86
2022/02/07 00:16:45;;;;;;;9.07;1.90;;;6.50;74.00;;;;;;4994106;28;20049;-86
2022/02/07 00:19:22;;;;;;;10.40;2.00;;;6.50;74.00;;;;;;4994712;28;20053;-85
2022/02/07 00:21:50;;;;;;;11.82;2.35;;;6.50;74.00;;;;;;4994600;28;20061;-86
2022/02/07 00:24:17;;;;;;;14.60;2.35;;;6.40;74.00;;;;;;4994602;28;20438;-86
2022/02/07 00:26:44;;;;;;;12.63;2.38;;;6.40;74.00;;;;;;4993175;28;20052;-86
2022/02/07 00:29:11;;;;;;;15.35;2.45;;;6.40;74.00;;;;;;4992765;28;20057;-85
2022/02/07 00:31:40;;;;;;;11.50;1.92;;;6.40;74.00;;;;;;4993626;28;20054;-86
2022/02/07 00:34:07;;;;;;;15.00;3.10;;;6.40;74.00;;;;;;4994454;28;20043;-85
2022/02/07 00:36:35;;;;;;;15.98;2.30;;;6.40;74.10;;;;;;4994182;28;20057;-86
2022/02/07 00:39:08;;;;;;;13.23;2.40;;;6.40;74.00;;;;;;4994152;28;20049;-86
2022/02/07 00:41:50;;;;;;;13.82;2.45;;;6.30;74.00;;;;;;4979495;28;20050;-87
2022/02/07 00:44:19;;;;;;;10.48;2.28;;;6.30;74.00;;;;;;4994403;28;20047;-86
2022/02/07 00:46:50;;;;;;;8.85;1.75;;;6.20;74.00;;;;;;4993459;28;20101;-87
2022/02/07 00:49:17;;;;;;;17.67;2.85;;;6.20;74.00;;;;;;4992906;28;20046;-86
2022/02/07 00:51:47;;;;;;;11.68;2.30;;;6.20;74.00;;;;;;4992949;28;20050;-86
2022/02/07 00:54:15;;;;;;;15.38;2.53;;;6.20;74.00;;;;;;4993710;28;20042;-86
2022/02/07 00:56:41;;;;;;;12.07;2.17;;;6.20;74.00;;;;;;4994163;28;20046;-85
2022/02/07 00:59:09;;;;;;;13.43;1.98;;;6.20;74.00;;;;;;4993253;28;20052;-85
2022/02/07 01:01:36;;;;;;;12.95;1.92;;;6.20;73.90;;;;;;4994446;28;20080;-86
2022/02/07 01:04:04;;;;;;;14.00;2.88;;;6.10;73.90;;;;;;4993833;28;20057;-85
2022/02/07 01:06:32;;;;;;;9.93;2.08;;;6.10;73.90;;;;;;4993877;28;20046;-86
2022/02/07 01:09:16;;;;;;;10.05;2.00;;;6.00;73.90;;;;;;4993571;28;20057;-86
2022/02/07 01:20:12;;;;;;;12.82;2.10;;;6.00;73.80;;;;;;4991190;28;20042;-87
2022/02/07 01:23:10;;;;;;;12.23;2.30;;;6.00;73.80;;;;;;4994348;28;20057;-87
2022/02/07 01:53:23;;;;;;;15.15;2.60;;;5.70;73.10;;;;;;4998938;28;20054;-87
2022/02/07 01:55:42;;;;;;;9.93;1.83;;;5.70;73.00;;;;;;5000689;28;20046;-87
2022/02/07 01:58:11;;;;;;;10.20;2.20;;;5.70;73.00;;;;;;4999874;28;20050;-86
2022/02/07 02:00:41;;;;;;;12.15;2.30;;;5.70;73.00;;;;;;4999781;28;20046;-85
2022/02/07 02:03:08;;;;;;;10.55;1.67;;;5.60;73.00;;;;;;5000164;28;20093;-86
2022/02/07 02:05:37;;;;;;;12.45;2.30;;;5.60;73.00;;;;;;5000015;28;20046;-85
2022/02/07 02:08:12;;;;;;;13.52;2.22;;;5.60;72.90;;;;;;4998687;28;20499;-85
2022/02/07 02:10:44;;;;;;;9.43;2.10;;;5.60;72.90;;;;;;5000503;28;20051;-86
2022/02/07 02:13:21;;;;;;;12.63;2.25;;;5.60;72.90;;;;;;4999805;28;20067;-86
2022/02/07 02:16:04;;;;;;;11.05;2.00;;;5.50;72.90;;;;;;4999963;28;20058;-86
2022/02/07 02:22:24;;;;;;;11.88;2.38;;;5.50;72.90;;;;;;4958192;28;20051;-87
2022/02/07 02:38:06;;;;;;;14.07;2.28;;;5.40;72.90;;;;;;4958564;28;20062;-86
2022/02/07 02:45:39;;;;;;;12.60;2.25;;;5.40;73.00;;;;;;4955516;28;20062;-85
2022/02/07 02:48:15;;;;;;;7.65;1.90;;;5.30;73.00;;;;;;4955353;28;20047;-86
2022/02/07 02:50:43;;;;;;;16.75;2.35;;;5.30;73.00;;;;;;4955203;28;20043;-85
2022/02/07 02:53:12;;;;;;;11.50;2.03;;;5.30;73.00;;;;;;4954791;28;20505;-86
2022/02/07 02:55:41;;;;;;;11.07;1.85;;;5.30;73.10;;;;;;4954903;28;20182;-87
2022/02/07 02:58:12;;;;;;;11.90;2.35;;;5.30;73.10;;;;;;4970287;28;20494;-86
2022/02/07 03:00:41;;;;;;;8.75;1.77;;;5.20;73.10;;;;;;4995906;28;20050;-86
2022/02/07 03:03:08;;;;;;;12.75;2.30;;;5.20;73.10;;;;;;4996184;28;20388;-85
2022/02/07 03:05:35;;;;;;;15.80;2.88;;;5.20;73.10;;;;;;4995891;28;20050;-85
2022/02/07 03:08:02;;;;;;;11.45;2.15;;;5.20;73.10;;;;;;4995208;28;20054;-86
2022/02/07 03:10:42;;;;;;;9.73;2.42;;;5.20;73.20;;;;;;4996134;28;20062;-86
2022/02/07 03:13:17;;;;;;;10.43;1.80;;;5.20;73.20;;;;;;4995874;28;20521;-85
2022/02/07 03:18:30;;;;;;;12.85;1.92;;;5.20;73.30;;;;;;4995547;28;19929;-86
2022/02/07 03:20:58;;;;;;;10.00;2.30;;;5.10;73.30;;;;;;4995816;28;20049;-85
2022/02/07 03:23:26;;;;;;;7.07;1.88;;;5.00;73.30;;;;;;4995828;28;20411;-85
2022/02/07 03:25:54;;;;;;;9.05;1.80;;;5.00;73.40;;;;;;4993737;28;20054;-85
2022/02/07 03:28:23;;;;;;;12.30;2.22;;;5.00;73.40;;;;;;4995699;28;20050;-86
2022/02/07 03:30:50;;;;;;;9.35;2.38;;;5.00;73.50;;;;;;4995474;28;20657;-85
2022/02/07 03:33:17;;;;;;;10.02;2.33;;;5.00;73.50;;;;;;4995355;28;20050;-87
2022/02/07 03:35:44;;;;;;;12.20;2.05;;;5.00;73.50;;;;;;4995620;28;20118;-85
2022/02/07 03:38:12;;;;;;;11.35;1.88;;;5.00;73.50;;;;;;4994925;28;20046;-87
2022/02/07 03:40:39;;;;;;;12.80;2.42;;;4.90;73.60;;;;;;4995010;28;20053;-86
2022/02/07 03:43:06;;;;;;;13.00;2.25;;;4.90;73.60;;;;;;4995336;28;20046;-86
2022/02/07 03:45:34;;;;;;;12.82;2.08;;;4.90;73.60;;;;;;4995394;28;20049;-85
2022/02/07 03:48:01;;;;;;;14.30;2.33;;;4.90;73.70;;;;;;4995008;28;20050;-85
2022/02/07 03:50:33;;;;;;;10.88;1.73;;;4.90;73.70;;;;;;4980061;28;20045;-85
2022/02/07 03:53:00;;;;;;;10.55;2.03;;;4.90;73.70;;;;;;5005301;28;20138;-85
2022/02/07 03:55:27;;;;;;;12.00;2.17;;;4.90;73.70;;;;;;4993953;28;20054;-86
2022/02/07 03:57:54;;;;;;;15.65;2.85;;;4.90;73.80;;;;;;4993961;28;20047;-85
2022/02/07 04:00:21;;;;;;;9.93;1.80;;;4.90;73.80;;;;;;4994944;28;20422;-86
2022/02/07 04:02:51;;;;;;;9.85;1.88;;;4.80;73.80;;;;;;4993565;28;20046;-86
2022/02/07 04:08:11;;;;;;;9.88;1.80;;;4.80;73.80;;;;;;4991459;28;20077;-85
2022/02/07 04:10:57;;;;;;;12.98;2.50;;;4.80;73.90;;;;;;4993250;28;20046;-86
2022/02/07 04:13:33;;;;;;;13.20;2.15;;;4.70;73.90;;;;;;4993547;28;20515;-85
2022/02/07 04:16:02;;;;;;;9.73;2.20;;;4.70;73.90;;;;;;4994783;28;20046;-85
2022/02/07 04:18:47;;;;;;;11.52;2.35;;;4.70;74.00;;;;;;4993138;28;20046;-85
2022/02/07 04:21:14;;;;;;;14.05;2.13;;;4.70;74.00;;;;;;4994541;28;20057;-85
2022/02/07 04:23:41;;;;;;;12.50;1.88;;;4.70;74.00;;;;;;4994689;28;20073;-86
2022/02/07 04:26:08;;;;;;;12.38;2.20;;;4.60;74.10;;;;;;4993806;28;20522;-86
2022/02/07 04:28:35;;;;;;;13.13;2.33;;;4.60;74.10;;;;;;4995061;28;20074;-85
2022/02/07 04:31:02;;;;;;;9.90;2.30;;;4.60;74.20;;;;;;4993310;28;20057;-86
2022/02/07 04:33:29;;;;;;;9.55;1.70;;;4.60;74.20;;;;;;4993327;28;20073;-86
2022/02/07 04:35:56;;;;;;;5.82;1.40;;;4.60;74.20;;;;;;4994448;28;20046;-86
2022/02/07 04:38:23;;;;;;;11.18;2.20;;;4.60;74.30;;;;;;4993416;28;20080;-86
2022/02/07 04:40:50;;;;;;;7.53;1.75;;;4.50;74.30;;;;;;4993612;28;20050;-86
2022/02/07 04:43:18;;;;;;;15.10;2.63;;;4.50;74.40;;;;;;4993083;28;20050;-86
2022/02/07 05:02:41;;;;;;;10.65;1.88;;;4.50;74.60;;;;;;4875184;29;20053;-86
2022/02/07 05:05:23;;;;;;;9.15;1.80;;;4.50;74.60;;;;;;4872888;29;20495;-86
2022/02/07 05:16:11;;;;;;;8.63;1.65;;;4.40;74.70;;;;;;4873127;29;20065;-87
2022/02/07 05:18:38;;;;;;;10.65;1.80;;;4.40;74.80;;;;;;4873297;29;20511;-86
2022/02/07 05:21:05;;;;;;;10.75;2.22;;;4.40;74.80;;;;;;4875005;29;20045;-87
2022/02/07 05:23:32;;;;;;;8.88;1.95;;;4.40;74.80;;;;;;4880221;29;20080;-88
2022/02/07 05:26:06;;;;;;;8.07;1.98;;;4.40;74.80;;;;;;4975195;28;20086;-86
2022/02/07 05:28:33;;;;;;;7.75;1.70;;;4.40;74.90;;;;;;4992720;28;20534;-89
2022/02/07 05:31:02;;;;;;;12.68;1.88;;;4.40;74.90;;;;;;4992354;28;20084;-88
2022/02/07 05:33:29;;;;;;;7.20;1.90;;;4.30;74.90;;;;;;4992558;28;20419;-87
2022/02/07 05:35:56;;;;;;;9.65;1.88;;;4.30;74.90;;;;;;4993722;28;20098;-87
2022/02/07 05:38:24;;;;;;;9.40;1.92;;;4.30;74.90;;;;;;4992665;28;20058;-87
2022/02/07 05:43:19;;;;;;;14.18;1.98;;;4.30;74.90;;;;;;4993481;28;20050;-86
2022/02/07 05:45:48;;;;;;;8.95;1.95;;;4.30;74.90;;;;;;4993524;28;20096;-86
2022/02/07 05:48:15;;;;;;;10.02;2.05;;;4.30;74.90;;;;;;4993570;28;20046;-86
2022/02/07 05:50:42;;;;;;;12.10;2.00;;;4.20;74.90;;;;;;4993491;28;20499;-87
2022/02/07 05:53:09;;;;;;;14.27;2.45;;;4.20;75.00;;;;;;4991517;28;20054;-87
2022/02/07 05:55:36;;;;;;;10.02;1.95;;;4.20;74.90;;;;;;4993390;28;20046;-87
2022/02/07 05:58:04;;;;;;;10.27;2.67;;;4.20;74.90;;;;;;4993086;28;20499;-88
2022/02/07 06:00:36;;;;;;;10.75;1.88;;;4.20;74.90;;;;;;4993223;28;20054;-87
2022/02/07 06:03:04;;;;;;;11.00;2.33;;;4.20;74.90;;;;;;4993479;28;20107;-86
2022/02/07 06:05:32;;;;;;;11.05;2.00;;;4.20;74.90;;;;;;4977942;28;20046;-87
2022/02/07 06:07:59;;;;;;;10.68;2.33;;;4.20;75.00;;;;;;4988677;28;20522;-87
2022/02/07 06:10:27;;;;;;;15.20;2.40;;;4.20;75.00;;;;;;4993150;28;20058;-87
2022/02/07 06:12:54;;;;;;;15.85;2.40;;;4.20;75.00;;;;;;4992876;28;20058;-86
2022/02/07 06:15:21;;;;;;;9.18;1.85;;;4.10;75.00;;;;;;4993281;28;20419;-87
2022/02/07 06:17:52;;;;;;;10.43;2.00;;;4.10;75.00;;;;;;4995840;28;20050;-88
2022/02/07 06:20:20;;;;;;;10.52;2.45;;;4.10;75.00;;;;;;4995756;28;20058;-87
2022/02/07 06:22:47;;;;;;;11.07;2.00;;;4.10;75.00;;;;;;4996129;28;20057;-87
2022/02/07 06:25:15;;;;;;;11.75;2.28;;;4.00;75.00;;;;;;4995786;28;20057;-87
2022/02/07 06:27:42;;;;;;;11.20;1.67;;;4.00;75.10;;;;;;4996449;28;20050;-87
2022/02/07 06:30:10;;;;;;;12.82;2.10;;;4.00;75.10;;;;;;4996889;28;20048;-87
2022/02/07 06:32:40;;;;;;;11.77;2.38;;;4.00;75.10;;;;;;4996784;28;22336;-86
2022/02/07 06:35:08;;;;;;;9.35;1.83;;;4.00;75.10;;;;;;4992721;28;20059;-86
2022/02/07 06:37:36;;;;;;;9.57;2.10;;;4.00;75.20;;;;;;4994417;28;20058;-86
2022/02/07 06:40:06;;;;;;;8.60;1.60;;;4.00;75.20;;;;;;4995400;28;20050;-86
2022/02/07 06:42:33;;;;;;;9.30;2.03;;;4.00;75.20;;;;;;4995436;28;20046;-86
2022/02/07 06:45:00;;;;;;;10.55;1.80;;;4.00;75.30;;;;;;4996143;28;20042;-86
2022/02/07 06:47:28;;;;;;;9.55;2.10;;;3.90;75.30;;;;;;4995124;28;20047;-86
2022/02/07 06:49:55;;;;;;;10.43;2.20;;;4.00;75.30;;;;;;4994873;28;20054;-86
2022/02/07 06:52:22;;;;;;;10.20;2.47;;;3.90;75.30;;;;;;4995978;28;20054;-86
2022/02/07 06:54:49;;;;;;;10.18;1.92;;;3.90;75.30;;;;;;4995885;28;20267;-86
2022/02/07 06:57:20;;;;;;;13.00;2.60;;;3.90;75.30;;;;;;4995334;28;20153;-85
2022/02/07 06:59:48;;;;;;;10.48;2.42;;;3.90;75.30;;;;;;4996110;28;20050;-85
2022/02/07 07:02:16;;;;;;;14.18;2.72;;;3.90;75.40;;;;;;4995454;28;20058;-85
2022/02/07 07:04:43;;;;;;;8.48;2.08;;;3.90;75.40;;;;;;4992785;28;20137;-86
2022/02/07 07:07:10;;;;;;;10.95;2.42;;;3.90;75.40;;;;;;4995905;28;20507;-85
2022/02/07 07:09:38;;;;;;;11.07;2.15;;;3.90;75.40;;;;;;4995339;28;20431;-85
2022/02/07 07:12:09;;;;;;;10.43;2.20;;;3.90;75.40;;;;;;4994012;28;20057;-85
2022/02/07 07:14:48;;;;;;;16.67;3.10;;;3.90;75.40;;;;;;4979563;28;20053;-85
2022/02/07 07:17:15;;;;;;;11.75;3.28;;;3.90;75.50;;;;;;4995597;28;20069;-85
2022/02/07 07:19:42;;;;;;;14.07;3.72;;;3.90;75.50;;;;;;4994390;28;20057;-85
2022/02/07 07:22:09;;;;;;;10.38;3.03;;;3.90;75.50;;;;;;4995546;28;20050;-85
2022/02/07 07:24:37;;;;;;;13.38;4.10;;;3.80;75.50;;;;;;4995259;28;20046;-84
2022/02/07 07:27:06;;;;;;;12.82;2.92;;;3.80;75.50;;;;;;4995016;28;20057;-85
2022/02/07 07:29:38;;;;;;;9.15;2.88;;;3.80;75.50;;;;;;4981412;28;20058;-85
2022/02/07 07:32:07;;;;;;;10.60;3.30;;;3.70;75.50;;;;;;4994567;28;20054;-84
2022/02/07 07:34:36;;;;;;;13.00;3.28;;;3.70;75.50;;;;;;5008471;28;20050;-86
2022/02/07 07:37:03;;;;;;;12.98;3.08;;;3.70;75.60;;;;;;4995250;28;20432;-86
2022/02/07 07:39:34;;;;;;;13.82;3.15;;;3.70;75.60;;;;;;4994694;28;20082;-86
2022/02/07 07:42:03;;;;;;;11.80;3.10;;;3.70;75.60;;;;;;4995251;28;20042;-86
2022/02/07 07:44:33;;;;;;;13.75;3.25;;;3.70;75.70;;;;;;4995222;28;20065;-85
2022/02/07 07:47:09;;;;;;;14.85;3.03;;;3.60;75.70;;;;;;4989919;28;20052;-85
2022/02/07 07:49:47;;;;;;;11.63;2.33;;;3.60;75.70;;;;;;4994046;28;20439;-85
2022/02/07 07:52:18;;;;;;;11.23;2.95;;;3.60;75.70;;;;;;4993709;28;20054;-85
2022/02/07 07:55:12;;;;;;;12.10;3.53;;;3.60;75.80;;;;;;4994084;28;20038;-85
2022/02/07 08:03:09;;;;;;;11.98;2.75;;;3.60;75.90;;;;;;4994581;28;20134;-85
2022/02/07 08:05:54;;;;;;;13.15;2.50;;;3.60;76.00;;;;;;4993519;28;20056;-85
2022/02/07 08:08:27;;;;;;;9.73;2.53;;;3.60;76.00;;;;;;4992951;28;20423;-85
2022/02/07 08:11:04;;;;;;;11.73;2.92;;;3.50;76.00;;;;;;4993480;28;20046;-85
2022/02/07 08:13:40;;;;;;;12.07;2.67;;;3.50;76.10;;;;;;4994932;28;20058;-85
2022/02/07 08:16:07;;;;;;;10.00;3.00;;;3.60;76.20;;;;;;4994326;28;20517;-85
2022/02/07 08:18:34;;;;;;;11.85;2.13;;;3.50;76.20;;;;;;4994137;28;20057;-85
2022/02/07 08:21:01;;;;;;;10.40;2.10;;;3.50;76.30;;;;;;4993245;28;20043;-85
2022/02/07 08:23:28;;;;;;;12.40;2.38;;;3.50;76.30;;;;;;4992813;28;20050;-85
2022/02/07 08:25:58;;;;;;;10.18;2.83;;;3.50;76.40;;;;;;4993165;28;20050;-85
2022/02/07 08:28:43;;;;;;;12.75;3.25;;;3.60;76.40;;;;;;4990295;28;20057;-85
2022/02/07 08:31:11;;;;;;;17.83;2.38;;;3.50;76.50;;;;;;4995618;28;20411;-85
2022/02/07 08:33:39;;;;;;;12.35;2.53;;;3.60;76.50;;;;;;4993995;28;20053;-85
2022/02/07 08:36:06;;;;;;;12.02;2.80;;;3.60;76.50;;;;;;4994221;28;20050;-85
2022/02/07 08:38:33;;;;;;;12.55;2.83;;;3.60;76.60;;;;;;4977614;28;20046;-86
2022/02/07 08:41:01;;;;;;;9.35;2.33;;;3.60;76.60;;;;;;5003141;28;20060;-85
2022/02/07 08:43:30;;;;;;;12.13;2.50;;;3.60;76.70;;;;;;4994192;28;20054;-85
2022/02/07 08:45:57;;;;;;;11.93;2.25;;;3.60;76.70;;;;;;4994047;28;20508;-85
2022/02/07 08:48:24;;;;;;;12.40;2.42;;;3.60;76.80;;;;;;4993585;28;20050;-84
2022/02/07 08:50:54;;;;;;;11.57;2.63;;;3.60;76.80;;;;;;4993872;28;20519;-85
2022/02/07 08:53:23;;;;;;;11.40;2.53;;;3.60;76.90;;;;;;4993536;28;20058;-85
2022/02/07 08:55:52;;;;;;;17.02;2.83;;;3.70;76.90;;;;;;4992995;28;20051;-86
2022/02/07 08:58:23;;;;;;;12.43;2.80;;;3.70;77.00;;;;;;4993655;28;20059;-86
2022/02/07 09:01:06;;;;;;;16.33;2.63;;;3.70;77.00;;;;;;4993604;28;20073;-87
2022/02/07 09:11:13;;;;;;;13.20;2.42;;;3.80;77.20;;;;;;4990170;28;20047;-85
2022/02/07 09:13:43;;;;;;;10.02;2.42;;;3.80;77.30;;;;;;4993047;28;20046;-86
2022/02/07 09:18:40;;;;;;;14.45;2.80;;;3.90;77.40;;;;;;4993209;28;20057;-86
2022/02/07 09:21:08;;;;;;;9.88;2.65;;;3.90;77.40;;;;;;4993639;28;20053;-86
2022/02/07 09:23:37;;;;;;;10.93;2.58;;;3.90;77.50;;;;;;4992742;28;20057;-86
2022/02/07 09:26:04;;;;;;;12.75;2.90;;;3.90;77.50;;;;;;4991725;28;20050;-87
2022/02/07 09:28:32;;;;;;;12.07;2.50;;;3.90;77.50;;;;;;4995626;28;20530;-87
2022/02/07 09:31:02;;;;;;;13.52;2.60;;;4.00;77.50;;;;;;4992461;28;20053;-87
2022/02/07 09:33:29;;;;;;;10.95;2.65;;;4.00;77.60;;;;;;4993717;28;20053;-87
2022/02/07 09:35:59;;;;;;;11.48;2.60;;;4.00;77.60;;;;;;4993595;28;20423;-87
2022/02/07 09:38:27;;;;;;;12.73;2.60;;;4.00;77.70;;;;;;4994133;28;20066;-86
2022/02/07 09:40:55;;;;;;;9.93;2.38;;;4.10;77.70;;;;;;4992804;28;20103;-86
2022/02/07 09:43:31;;;;;;;14.20;2.88;;;4.20;77.80;;;;;;4993764;28;20058;-86
2022/02/07 09:46:06;;;;;;;13.10;2.60;;;4.20;77.80;;;;;;4993615;28;20077;-85
2022/02/07 09:48:35;;;;;;;10.25;2.63;;;4.20;77.80;;;;;;4993617;28;20065;-85
2022/02/07 09:51:02;;;;;;;13.25;2.33;;;4.20;77.90;;;;;;4992997;28;20086;-85
2022/02/07 09:53:30;;;;;;;11.13;2.28;;;4.30;77.90;;;;;;4997728;28;20046;-84
2022/02/07 09:55:58;;;;;;;13.52;2.53;;;4.40;77.90;;;;;;4996833;28;20078;-85
2022/02/07 09:58:25;;;;;;;7.20;1.90;;;4.40;78.00;;;;;;4997681;28;20067;-85
2022/02/07 10:00:58;;;;;;;14.75;2.35;;;4.50;78.00;;;;;;4996235;28;20050;-85
2022/02/07 10:03:33;;;;;;;14.02;2.20;;;4.50;77.90;;;;;;4996058;28;20038;-85
2022/02/07 10:06:15;;;;;;;11.13;2.65;;;4.60;77.90;;;;;;4997207;28;20058;-87
2022/02/07 10:08:59;;;;;;;11.80;2.10;;;4.60;77.80;;;;;;4982807;28;20053;-86
2022/02/07 10:14:06;;;;;;;12.85;2.47;;;4.80;77.80;;;;;;4996398;28;20058;-85
2022/02/07 10:16:43;;;;;;;12.48;2.50;;;4.90;77.80;;;;;;4997122;28;20491;-85
2022/02/07 10:44:45;;;;;;;11.20;2.03;;;7.00;74.60;;;;;;4995765;28;20062;-84
2022/02/07 10:47:27;;;;;;;14.88;2.10;;;7.30;74.10;;;;;;4993385;28;20069;-84
2022/02/07 10:50:12;;;;;;;12.00;2.30;;;7.40;73.60;;;;;;4994692;28;20050;-84
2022/02/07 10:52:52;;;;;;;;;;;7.70;73.20;;;;;;4997599;28;20057;-84
2022/02/07 10:55:36;;;;;;;11.70;1.95;;;7.90;72.80;;;;;;4996219;28;20382;-84
2022/02/07 10:58:06;;;;;;;8.65;2.05;;;8.00;72.30;;;;;;4995683;28;20047;-85
2022/02/07 11:00:42;;;;;;;10.52;2.08;;;8.10;71.90;;;;;;4994054;28;20047;-87
2022/02/07 11:03:13;;;;;;;13.45;2.03;;;8.30;71.50;;;;;;4988672;28;20046;-87
2022/02/07 11:05:50;;;;;;;8.13;1.98;;;8.40;71.10;;;;;;4994200;28;20498;-86
2022/02/07 11:16:08;;;;;;;11.27;1.80;;;8.90;69.50;;;;;;4995672;28;20057;-86
2022/02/07 11:21:44;;;;;;;7.85;1.80;;;9.30;68.80;;;;;;4995519;28;20062;-86
2022/02/07 11:24:49;;;;;;;6.30;1.48;;;9.40;68.50;;;;;;4995726;28;20043;-86
2022/02/07 11:27:40;;;;;;;7.68;1.83;;;9.40;68.00;;;;;;4995156;28;20078;-84
2022/02/07 11:30:13;;;;;;;6.70;1.60;;;9.50;67.60;;;;;;4995336;28;20050;-85
2022/02/07 11:32:44;;;;;;;8.63;1.88;;;9.60;67.30;;;;;;4994994;28;20125;-86
2022/02/07 11:35:16;;;;;;;7.03;1.60;;;9.70;67.00;;;;;;4994436;28;20043;-86
2022/02/07 11:37:51;;;;;;;7.63;1.63;;;9.80;66.80;;;;;;4992387;28;20054;-87
2022/02/07 11:40:33;;;;;;;8.30;2.25;;;9.80;66.50;;;;;;4994810;28;20132;-86
2022/02/07 11:43:06;;;;;;;7.38;1.65;;;9.90;66.40;;;;;;4995350;28;20062;-86
2022/02/07 11:45:55;;;;;;;13.57;1.70;;;9.90;66.20;;;;;;4995620;28;20053;-85
2022/02/07 11:48:49;;;;;;;8.57;1.80;;;9.90;65.90;;;;;;4995400;28;20435;-86
2022/02/07 11:51:25;;;;;;;9.32;1.88;;;9.90;65.80;;;;;;4993273;28;20046;-85
2022/02/07 11:53:59;;;;;;;9.80;1.90;;;9.90;65.60;;;;;;4994197;28;20046;-85
2022/02/07 11:56:47;;;;;;;4.97;1.40;;;9.90;65.20;;;;;;4995298;28;20050;-85
2022/02/07 11:59:28;;;;;;;7.05;1.63;;;10.00;64.90;;;;;;4991628;28;20462;-85
2022/02/07 12:02:09;;;;;;;5.32;1.42;;;9.90;64.60;;;;;;4993690;28;20046;-85
2022/02/07 12:04:48;;;;;;;13.15;1.63;;;9.90;64.30;;;;;;4995393;28;20046;-85
2022/02/07 12:07:19;;;;;;;6.90;1.42;;;9.90;64.20;;;;;;4995021;28;20056;-86
2022/02/07 12:12:43;;;;;;;7.20;1.80;;;9.90;63.80;;;;;;4994953;28;20114;-86
2022/02/07 12:15:48;;;;;;;6.55;1.30;;;9.90;63.70;;;;;;4994310;28;20411;-85
2022/02/07 12:18:15;;;;;;;8.60;1.45;;;9.90;63.50;;;;;;4993689;28;20046;-85
2022/02/07 12:20:43;;;;;;;8.18;1.40;;;9.90;63.40;;;;;;4994744;28;20042;-85
2022/02/07 12:23:17;;;;;;;7.90;1.80;;;9.90;63.30;;;;;;4992965;28;20050;-85
2022/02/07 12:26:00;;;;;;;6.50;1.70;;;9.90;63.30;;;;;;4991910;28;20062;-85
2022/02/07 12:28:56;;;;;;;8.48;1.80;;;9.90;63.20;;;;;;4994748;28;20050;-85
2022/02/07 12:31:24;;;;;;;9.48;1.63;;;9.90;63.20;;;;;;4994246;28;20061;-85
2022/02/07 12:33:57;;;;;;;6.85;1.65;;;9.90;63.30;;;;;;4993375;28;20046;-85
2022/02/07 12:36:27;;;;;;;6.32;1.52;;;9.80;63.20;;;;;;4994491;28;20042;-85
2022/02/07 12:38:58;;;;;;;7.10;1.45;;;9.80;63.20;;;;;;4994523;28;20050;-87
2022/02/07 12:41:29;;;;;;;6.63;1.63;;;9.80;63.20;;;;;;4994534;28;20053;-86
2022/02/07 12:43:58;;;;;;;10.27;2.35;;;9.80;63.20;;;;;;4993251;28;20085;-86
2022/02/07 12:46:28;;;;;;;9.23;1.67;;;9.80;63.20;;;;;;4994359;28;20109;-85
2022/02/07 12:49:01;;;;;;;8.90;1.83;;;9.80;63.10;;;;;;4994103;28;20047;-85
2022/02/07 12:51:42;;;;;;;8.98;2.25;;;9.80;63.10;;;;;;4994240;28;20053;-85
2022/02/07 12:54:13;;;;;;;7.63;1.52;;;9.80;63.10;;;;;;4994165;28;20054;-85
2022/02/07 12:56:41;;;;;;;7.25;1.70;;;9.80;63.10;;;;;;4994222;28;20057;-85
2022/02/07 12:59:07;;;;;;;7.22;1.50;;;9.80;63.20;;;;;;4993125;28;20057;-86
2022/02/07 13:01:39;;;;;;;9.93;1.73;;;9.80;63.20;;;;;;4994284;28;20518;-86
2022/02/07 13:04:07;;;;;;;7.20;1.60;;;9.80;63.20;;;;;;4992790;28;20084;-86
2022/02/07 13:06:40;;;;;;;9.07;1.92;;;9.80;63.30;;;;;;4992724;28;20042;-86
2022/02/07 13:09:31;;;;;;;7.85;2.20;;;9.90;63.30;;;;;;4992732;28;20054;-86
2022/02/07 13:14:46;;;;;;;6.85;1.83;;;9.90;63.30;;;;;;4978885;28;20046;-85
2022/02/07 13:17:14;;;;;;;9.48;1.75;;;9.90;63.30;;;;;;4993645;28;20053;-85
2022/02/07 13:19:43;;;;;;;6.65;1.88;;;9.90;63.30;;;;;;4991835;28;20073;-85
2022/02/07 13:22:14;;;;;;;10.77;1.90;;;9.90;63.30;;;;;;4993805;28;20047;-86
2022/02/07 13:24:42;;;;;;;10.82;2.40;;;9.90;63.30;;;;;;4993468;28;20042;-86
2022/02/07 13:27:13;;;;;;;10.07;1.75;;;10.00;63.30;;;;;;4992124;28;20050;-86
2022/02/07 13:29:58;;;;;;;6.90;1.77;;;10.00;63.30;;;;;;4993466;28;20046;-87
2022/02/07 13:32:31;;;;;;;11.85;1.88;;;10.00;63.20;;;;;;4993723;28;20517;-86
2022/02/07 13:35:13;;;;;;;7.80;1.70;;;10.00;63.20;;;;;;4992954;28;20081;-85
2022/02/07 13:37:42;;;;;;;8.05;1.77;;;10.10;63.20;;;;;;4994544;28;20051;-86
2022/02/07 13:40:18;;;;;;;7.88;1.65;;;10.10;63.20;;;;;;4993493;28;20467;-85
2022/02/07 13:42:47;;;;;;;9.52;1.75;;;10.20;63.20;;;;;;4992179;28;20050;-85
2022/02/07 13:45:23;;;;;;;10.40;2.15;;;10.20;63.20;;;;;;4993556;28;20050;-85
2022/02/07 13:47:53;;;;;;;7.32;1.63;;;10.20;63.20;;;;;;4993759;28;20046;-85
2022/02/07 13:50:27;;;;;;;11.18;1.85;;;10.30;63.10;;;;;;4993535;28;20053;-85
2022/02/07 13:52:56;;;;;;;;;;;10.30;63.10;;;;;;4993544;28;20136;-84
2022/02/07 13:55:28;;;;;;;11.40;2.03;;;10.30;63.10;;;;;;4993351;28;19922;-85
2022/02/07 13:58:10;;;;;;;13.55;2.20;;;10.30;63.00;;;;;;4993209;28;20054;-85
2022/02/07 14:00:49;;;;;;;9.93;1.95;;;10.30;62.90;;;;;;4993324;28;20365;-86
2022/02/07 14:03:31;;;;;;;13.95;2.53;;;10.40;62.80;;;;;;4993363;28;20089;-86
2022/02/07 14:06:05;;;;;;;9.60;2.08;;;10.30;62.80;;;;;;4993613;28;20051;-86
2022/02/07 14:08:38;;;;;;;10.73;2.25;;;10.40;62.70;;;;;;4977921;28;20443;-86
2022/02/07 14:11:08;;;;;;;12.70;2.17;;;10.40;62.60;;;;;;4989075;28;20108;-85
2022/02/07 14:13:37;;;;;;;10.13;1.80;;;10.40;62.60;;;;;;4993498;28;20057;-85
2022/02/07 14:16:05;;;;;;;8.55;1.52;;;10.40;62.40;;;;;;4993366;28;20050;-85
2022/02/07 14:18:33;;;;;;;13.80;2.50;;;10.40;62.30;;;;;;4993525;28;20042;-85
2022/02/07 14:21:08;;;;;;;10.35;1.67;;;10.40;62.10;;;;;;4993396;28;20050;-86
2022/02/07 14:23:36;;;;;;;9.10;1.77;;;10.40;62.10;;;;;;4978302;28;20052;-85
2022/02/07 14:26:26;;;;;;;6.47;1.50;;;10.40;62.00;;;;;;4992875;28;20169;-84
2022/02/07 14:28:56;;;;;;;9.05;2.00;;;10.40;61.80;;;;;;4991250;28;20047;-84
2022/02/07 14:31:23;;;;;;;7.93;1.60;;;10.40;61.60;;;;;;4993226;28;20062;-85
2022/02/07 14:33:50;;;;;;;9.48;1.98;;;10.40;61.50;;;;;;4993135;28;20499;-85
2022/02/07 14:36:17;;;;;;;8.30;1.80;;;10.40;61.40;;;;;;4993163;28;20046;-85
2022/02/07 14:38:44;;;;;;;10.57;2.03;;;10.40;61.20;;;;;;4996329;28;20050;-85
2022/02/07 14:41:11;;;;;;;8.98;1.80;;;10.40;61.10;;;;;;4995651;28;20046;-87
2022/02/07 14:43:40;;;;;;;7.28;1.40;;;10.30;61.00;;;;;;4996201;28;20569;-86
2022/02/07 14:46:10;;;;;;;13.30;1.80;;;10.30;60.80;;;;;;4996513;28;20430;-85
2022/02/07 14:48:39;;;;;;;7.78;1.73;;;10.30;60.90;;;;;;4996557;28;20038;-86
2022/02/07 14:51:08;;;;;;;6.72;1.38;;;10.20;60.80;;;;;;4996525;28;20058;-85
2022/02/07 14:53:36;;;;;;;7.45;1.73;;;10.20;60.80;;;;;;4996634;28;20133;-85
2022/02/07 14:56:05;;;;;;;10.48;1.80;;;10.10;60.80;;;;;;4995226;28;20050;-85
2022/02/07 14:58:33;;;;;;;8.73;1.85;;;10.10;60.90;;;;;;4996209;28;20053;-85
2022/02/07 15:01:00;;;;;;;8.45;1.85;;;10.00;61.00;;;;;;4995092;28;20054;-85
2022/02/07 15:03:27;;;;;;;10.20;1.98;;;10.00;61.00;;;;;;4994947;28;20149;-85
2022/02/07 15:05:55;;;;;;;11.32;2.30;;;9.90;61.10;;;;;;4996268;28;20061;-85
2022/02/07 15:08:26;;;;;;;12.73;2.10;;;9.90;61.20;;;;;;4996090;28;20447;-85
2022/02/07 15:10:53;;;;;;;14.35;2.17;;;9.90;61.30;;;;;;4995031;28;20411;-85
2022/02/07 15:13:21;;;;;;;8.98;1.55;;;9.80;61.50;;;;;;4994703;28;20054;-85
2022/02/07 15:15:48;;;;;;;15.30;2.00;;;9.80;61.70;;;;;;4996063;28;20065;-85
2022/02/07 15:18:17;;;;;;;11.55;1.92;;;9.70;61.90;;;;;;4995975;28;20046;-85
2022/02/07 15:20:44;;;;;;;9.55;2.15;;;9.60;62.00;;;;;;4995864;28;20057;-85
2022/02/07 15:23:11;;;;;;;9.30;2.22;;;9.60;62.20;;;;;;4994063;28;20047;-85
2022/02/07 15:25:39;;;;;;;8.18;1.70;;;9.50;62.30;;;;;;4995132;28;20061;-84
2022/02/07 15:28:08;;;;;;;8.15;1.50;;;9.50;62.40;;;;;;4995858;28;20050;-86
2022/02/07 15:30:41;;;;;;;10.88;1.80;;;9.40;62.60;;;;;;4995799;28;20104;-85
2022/02/07 15:33:16;;;;;;;7.13;1.67;;;9.40;62.70;;;;;;4995703;28;20071;-85
2022/02/07 15:35:47;;;;;;;7.20;1.58;;;9.40;62.90;;;;;;4994615;28;20511;-85
2022/02/07 15:38:15;;;;;;;10.88;2.00;;;9.40;63.00;;;;;;4994994;28;20054;-85
2022/02/07 15:40:42;;;;;;;9.95;2.22;;;9.30;63.20;;;;;;4994814;28;20061;-84
2022/02/07 15:43:09;;;;;;;13.70;2.15;;;9.20;63.40;;;;;;4995457;28;20420;-86